Time;durP1;ratioP1;P1;durP2;ratioP2;P2;SDS_P1;SDS_P2;PMS_P1;PMS_P2;Temp;Humidity;BMP_temperature;BMP_pressure;BME280_temperature;BME280_humidity;BME280_pressure;Samples;Min_cycle;Max_cycle;Signal;HPM_P1;HPM_P2
2022/05/20 00:02:01;;;;;;;3.03;2.10;;;;;;;24.78;47.03;102015.09;5113594;28;20048;-74
2022/05/20 00:04:28;;;;;;;4.40;2.20;;;;;;;24.78;47.03;102012.41;5113367;28;20046;-73
2022/05/20 00:06:56;;;;;;;4.32;1.88;;;;;;;24.80;46.81;102014.97;5114009;28;20495;-73
2022/05/20 00:09:24;;;;;;;5.03;2.10;;;;;;;24.79;47.27;102013.25;5113333;28;20043;-73
2022/05/20 00:11:52;;;;;;;3.90;1.85;;;;;;;24.79;46.96;102014.09;5113188;28;20040;-74
2022/05/20 00:14:19;;;;;;;6.00;2.30;;;;;;;24.79;47.23;102013.25;5113246;28;20490;-73
2022/05/20 00:16:47;;;;;;;3.75;2.10;;;;;;;24.79;47.27;102013.25;5104099;28;20051;-73
2022/05/20 00:19:14;;;;;;;3.03;1.95;;;;;;;24.79;47.18;102015.94;5095176;28;20507;-74
2022/05/20 00:21:41;;;;;;;3.17;2.22;;;;;;;24.79;47.33;102026.78;5097324;28;20044;-73
2022/05/20 00:24:09;;;;;;;3.25;1.90;;;;;;;24.78;47.47;102028.63;5097056;28;20044;-73
2022/05/20 00:26:36;;;;;;;2.58;1.88;;;;;;;24.78;47.39;102017.81;5097132;28;20048;-73
2022/05/20 00:29:04;;;;;;;4.38;2.10;;;;;;;24.78;47.37;102025.09;5097308;28;20044;-73
2022/05/20 00:31:31;;;;;;;4.30;2.17;;;;;;;24.78;47.36;102023.22;5096500;28;20048;-74
2022/05/20 00:33:59;;;;;;;3.03;2.00;;;;;;;24.79;47.37;102026.78;5104425;28;20050;-74
2022/05/20 00:36:26;;;;;;;3.85;2.00;;;;;;;24.79;47.31;102032.19;5116539;28;20103;-74
2022/05/20 00:38:54;;;;;;;2.90;2.05;;;;;;;24.78;47.63;102027.78;5115968;28;20058;-73
2022/05/20 00:41:21;;;;;;;3.85;2.10;;;;;;;24.78;47.42;102028.63;5116861;28;20043;-74
2022/05/20 00:43:50;;;;;;;4.35;2.00;;;;;;;24.78;47.54;102034.06;5117395;28;20039;-72
2022/05/20 00:46:20;;;;;;;3.25;2.15;;;;;;;24.78;47.38;102030.50;5115692;28;20411;-73
2022/05/20 00:49:01;;;;;;;4.10;2.03;;;;;;;24.78;47.51;102034.06;5117457;28;20046;-74
2022/05/20 00:51:42;;;;;;;4.70;2.10;;;;;;;24.78;47.38;102033.22;5116716;28;20040;-73
2022/05/20 00:54:18;;;;;;;4.13;1.80;;;;;;;24.78;47.33;102039.47;5096406;28;20063;-74
2022/05/20 00:56:57;;;;;;;3.38;1.75;;;;;;;24.78;47.54;102034.06;5094159;28;20488;-74
2022/05/20 00:59:28;;;;;;;2.40;1.63;;;;;;;24.78;47.63;102041.34;5096738;28;20046;-74
2022/05/20 01:02:03;;;;;;;4.13;2.47;;;;;;;24.78;47.41;102044.03;5096444;28;20044;-74
2022/05/20 01:04:31;;;;;;;3.25;2.20;;;;;;;24.78;47.59;102036.78;5096212;28;20052;-73
2022/05/20 01:06:59;;;;;;;2.63;1.95;;;;;;;24.78;47.47;102027.78;5096424;28;20070;-73
2022/05/20 01:09:26;;;;;;;3.72;2.15;;;;;;;24.77;47.43;102026.94;5095992;28;20044;-73
2022/05/20 01:11:55;;;;;;;4.78;1.80;;;;;;;24.78;47.72;102025.94;5096150;28;20051;-73
2022/05/20 01:14:26;;;;;;;4.15;2.33;;;;;;;24.78;47.38;102023.22;5108618;28;20402;-73
2022/05/20 01:16:53;;;;;;;6.35;2.25;;;;;;;24.78;47.67;102025.09;5116479;28;20036;-74
2022/05/20 01:19:45;;;;;;;4.40;2.08;;;;;;;24.78;47.47;102031.34;5116439;28;20048;-73
2022/05/20 01:22:25;;;;;;;3.30;1.88;;;;;;;24.77;47.76;102032.34;5097268;28;20047;-73
2022/05/20 01:24:53;;;;;;;3.22;2.33;;;;;;;24.78;47.47;102033.22;5116446;28;20054;-73
2022/05/20 01:27:20;;;;;;;4.68;2.30;;;;;;;24.78;47.54;102039.47;5115983;28;20051;-73
2022/05/20 01:29:48;;;;;;;3.30;2.08;;;;;;;24.78;47.96;102031.34;5116158;28;20491;-73
2022/05/20 01:32:15;;;;;;;2.50;2.10;;;;;;;24.77;47.90;102037.78;5116346;28;20051;-74
2022/05/20 01:34:42;;;;;;;3.25;2.17;;;;;;;24.78;47.70;102033.22;5115654;28;20035;-73
2022/05/20 01:37:10;;;;;;;4.78;2.50;;;;;;;24.77;47.53;102032.34;5115010;28;20051;-73
2022/05/20 01:39:38;;;;;;;3.70;2.03;;;;;;;24.77;47.80;102034.22;5115871;28;20479;-73
2022/05/20 01:42:12;;;;;;;3.13;2.05;;;;;;;24.77;47.82;102039.63;5116773;28;20040;-73
2022/05/20 01:45:15;;;;;;;3.30;2.22;;;;;;;24.78;47.87;102033.22;5114771;28;20051;-73
2022/05/20 01:47:49;;;;;;;2.70;1.88;;;;;;;24.78;47.77;102030.50;5114881;27;20051;-73
2022/05/20 01:50:23;;;;;;;3.50;2.75;;;;;;;24.78;47.99;102033.22;5116155;28;20043;-73
2022/05/20 01:53:16;;;;;;;3.92;2.15;;;;;;;24.78;47.88;102038.63;5115881;28;20123;-73
2022/05/20 01:55:52;;;;;;;4.82;2.40;;;;;;;24.77;47.80;102037.78;5110553;28;20054;-73
2022/05/20 01:58:34;;;;;;;3.97;2.20;;;;;;;24.78;48.10;102038.63;5116081;28;20119;-73
2022/05/20 02:01:08;;;;;;;6.47;2.53;;;;;;;24.77;47.82;102037.78;5116024;28;20044;-73
2022/05/20 02:03:43;;;;;;;3.78;2.25;;;;;;;24.77;48.21;102042.34;5115472;28;20039;-72
2022/05/20 02:06:17;;;;;;;3.78;2.28;;;;;;;24.77;47.92;102036.91;5115627;28;20102;-73
2022/05/20 02:09:07;;;;;;;3.17;2.10;;;;;;;24.78;47.97;102035.91;5115636;28;20092;-73
2022/05/20 02:11:39;;;;;;;3.17;2.13;;;;;;;24.77;48.05;102037.78;5115402;28;20137;-72
2022/05/20 02:14:26;;;;;;;3.67;2.50;;;;;;;24.77;47.88;102039.63;5115059;28;20050;-72
2022/05/20 02:17:07;;;;;;;5.05;2.60;;;;;;;24.77;48.07;102031.50;5113760;28;20044;-73
2022/05/20 02:19:59;;;;;;;4.88;2.40;;;;;;;24.76;48.24;102030.66;5115443;28;20498;-74
2022/05/20 02:22:32;;;;;;;2.80;1.85;;;;;;;24.77;48.07;102031.50;5115366;28;20044;-73
2022/05/20 02:25:02;;;;;;;3.80;2.45;;;;;;;24.76;48.02;102032.50;5113632;28;20077;-74
2022/05/20 02:27:35;;;;;;;4.03;2.53;;;;;;;24.76;48.39;102035.22;5113298;28;20058;-74
2022/05/20 02:30:10;;;;;;;3.67;2.30;;;;;;;24.75;47.92;102034.31;5115077;28;20047;-74
2022/05/20 02:32:44;;;;;;;3.63;2.10;;;;;;;24.76;48.05;102038.78;5113718;28;20051;-74
2022/05/20 02:35:12;;;;;;;6.60;2.42;;;;;;;24.76;47.98;102038.78;5114577;28;20051;-74
2022/05/20 02:37:40;;;;;;;4.35;2.75;;;;;;;24.76;48.08;102037.91;5114118;28;20058;-74
2022/05/20 02:40:10;;;;;;;4.53;2.70;;;;;;;24.76;48.17;102040.63;5113071;28;20078;-74
2022/05/20 02:42:38;;;;;;;4.90;2.53;;;;;;;24.76;48.37;102035.22;5114617;28;20044;-74
2022/05/20 02:45:06;;;;;;;3.40;2.17;;;;;;;24.76;48.15;102046.03;5114600;28;20054;-74
2022/05/20 02:47:35;;;;;;;3.13;2.22;;;;;;;24.76;48.25;102040.63;5112868;28;20047;-73
2022/05/20 02:50:12;;;;;;;3.55;2.58;;;;;;;24.76;48.53;102040.63;5115113;28;20051;-74
2022/05/20 02:52:40;;;;;;;3.55;2.35;;;;;;;24.76;48.34;102040.63;5114491;28;20047;-74
2022/05/20 02:55:08;;;;;;;4.30;2.63;;;;;;;24.75;48.00;102038.91;5114393;28;20044;-74
2022/05/20 02:57:36;;;;;;;2.70;1.90;;;;;;;24.74;48.09;102038.03;5114521;28;20040;-73
2022/05/20 03:05:37;;;;;;;4.35;2.28;;;;;;;24.75;48.36;102052.44;5114273;28;20062;-74
2022/05/20 03:08:05;;;;;;;3.28;2.22;;;;;;;24.75;48.32;102060.56;5114643;28;20044;-73
2022/05/20 03:10:32;;;;;;;3.65;2.30;;;;;;;24.74;47.94;102058.84;5112282;28;20048;-74
2022/05/20 03:13:02;;;;;;;3.40;2.40;;;;;;;24.74;48.13;102057.00;5114063;28;20040;-74
2022/05/20 03:15:31;;;;;;;3.95;2.20;;;;;;;24.73;48.14;102049.88;5114697;28;20036;-72
2022/05/20 03:17:59;;;;;;;4.35;2.80;;;;;;;24.74;48.03;102059.72;5113995;28;20372;-74
2022/05/20 03:20:26;;;;;;;3.50;2.00;;;;;;;24.74;48.13;102056.16;5113892;28;20117;-74
2022/05/20 03:22:54;;;;;;;2.70;2.08;;;;;;;24.75;48.02;102060.56;5113018;28;20383;-74
2022/05/20 03:25:21;;;;;;;6.18;2.88;;;;;;;24.73;48.00;102052.59;5113704;28;20044;-73
2022/05/20 03:27:49;;;;;;;5.47;2.42;;;;;;;24.73;47.80;102051.72;5113829;28;20050;-74
2022/05/20 03:30:17;;;;;;;6.40;3.38;;;;;;;24.72;47.67;102055.44;5114156;28;20043;-74
2022/05/20 03:32:44;;;;;;;5.85;3.13;;;;;;;24.71;47.58;102056.41;5113721;28;20039;-74
2022/05/20 03:35:12;;;;;;;3.80;2.55;;;;;;;24.70;47.52;102060.97;5112274;28;20059;-74
2022/05/20 03:37:40;;;;;;;3.42;2.95;;;;;;;24.70;47.25;102062.84;5112799;28;20050;-74
2022/05/20 03:40:07;;;;;;;8.05;3.17;;;;;;;24.69;47.33;102055.72;5110817;28;20042;-74
2022/05/20 03:42:35;;;;;;;5.85;3.17;;;;;;;24.69;47.11;102058.41;5112327;28;20059;-74
2022/05/20 03:45:03;;;;;;;4.35;2.95;;;;;;;24.67;46.94;102075.66;5113339;28;20039;-74
2022/05/20 03:47:30;;;;;;;5.40;3.17;;;;;;;24.66;47.15;102057.69;5112437;28;20040;-74
2022/05/20 03:50:00;;;;;;;5.20;3.05;;;;;;;24.65;46.86;102058.69;5112063;28;20137;-74
2022/05/20 03:52:27;;;;;;;5.43;2.78;;;;;;;24.63;46.94;102055.28;5113436;28;20039;-74
2022/05/20 03:54:55;;;;;;;4.55;3.10;;;;;;;24.64;46.65;102066.97;5112829;28;20043;-74
2022/05/20 03:57:22;;;;;;;4.97;3.05;;;;;;;24.64;46.87;102066.97;5113512;28;20043;-74
2022/05/20 03:59:50;;;;;;;3.53;2.97;;;;;;;24.62;46.71;102067.06;5111999;28;20063;-73
2022/05/20 04:02:17;;;;;;;5.70;3.47;;;;;;;24.63;46.54;102067.94;5113201;28;20051;-74
2022/05/20 04:04:49;;;;;;;4.95;2.92;;;;;;;24.62;46.54;102077.06;5113424;28;20039;-74
2022/05/20 04:07:24;;;;;;;5.88;2.88;;;;;;;24.61;46.58;102084.31;5113528;28;20043;-74
2022/05/20 04:09:53;;;;;;;5.85;2.45;;;;;;;24.60;46.46;102074.50;5113371;28;20047;-74
2022/05/20 04:12:24;;;;;;;5.05;2.55;;;;;;;24.61;46.31;102083.47;5111938;28;20048;-74
2022/05/20 04:14:53;;;;;;;4.40;2.63;;;;;;;24.60;46.42;102079.06;5113237;28;20054;-72
2022/05/20 04:17:21;;;;;;;5.38;3.10;;;;;;;24.60;45.96;102076.34;5107792;28;20363;-74
2022/05/20 04:19:48;;;;;;;4.50;2.50;;;;;;;24.59;46.31;102082.72;5093224;28;20483;-74
2022/05/20 04:22:25;;;;;;;4.88;2.80;;;;;;;24.58;46.24;102087.28;5092855;28;20488;-75
2022/05/20 04:24:53;;;;;;;8.70;2.95;;;;;;;24.58;46.49;102084.59;5092911;28;20044;-74
2022/05/20 04:27:20;;;;;;;3.75;2.90;;;;;;;24.57;46.56;102082.88;5093260;28;20400;-74
2022/05/20 04:29:48;;;;;;;4.45;2.60;;;;;;;24.57;46.45;102091.00;5092553;28;20044;-74
2022/05/20 04:32:15;;;;;;;6.97;2.80;;;;;;;24.58;46.52;102094.56;5093505;28;20052;-74
2022/05/20 04:34:43;;;;;;;4.82;3.20;;;;;;;24.57;46.78;102096.41;5092679;28;20044;-73
2022/05/20 04:37:10;;;;;;;4.97;2.63;;;;;;;24.57;46.56;102100.97;5093303;28;20048;-73
2022/05/20 04:39:38;;;;;;;3.70;2.80;;;;;;;24.55;46.78;102093.00;5111440;28;20051;-74
2022/05/20 04:47:39;;;;;;;3.17;2.63;;;;;;;24.54;46.87;102098.53;5091101;28;20052;-74
2022/05/20 04:50:07;;;;;;;4.82;2.90;;;;;;;24.53;46.94;102094.97;5090508;28;20060;-74
2022/05/20 04:52:35;;;;;;;5.15;2.97;;;;;;;24.53;46.85;102100.38;5090530;28;20048;-74
2022/05/20 04:55:03;;;;;;;5.22;3.42;;;;;;;24.53;46.68;102100.38;5060715;28;20067;-74
2022/05/20 04:57:51;;;;;;;4.72;2.83;;;;;;;24.52;46.69;102106.81;5050826;28;20052;-74
2022/05/20 05:00:23;;;;;;;3.78;2.67;;;;;;;24.51;46.76;102107.81;5033056;28;20053;-74
2022/05/20 05:02:52;;;;;;;5.13;3.63;;;;;;;24.52;46.96;102109.50;5050846;28;20065;-74
2022/05/20 05:05:23;;;;;;;4.93;3.05;;;;;;;24.52;46.67;102108.66;5035543;28;20053;-74
2022/05/20 05:07:53;;;;;;;7.57;3.35;;;;;;;24.52;47.07;102108.66;5053624;28;20428;-73
2022/05/20 05:10:24;;;;;;;4.03;2.97;;;;;;;24.52;46.92;102114.94;5054045;28;20053;-74
2022/05/20 05:12:51;;;;;;;4.82;3.25;;;;;;;24.52;47.04;102112.22;5053641;28;20064;-74
2022/05/20 05:15:20;;;;;;;4.68;2.90;;;;;;;24.52;47.44;102114.06;5053675;28;20063;-74
2022/05/20 05:20:33;;;;;;;3.70;3.00;;;;;;;24.52;47.27;102114.06;5053487;28;20053;-74
2022/05/20 05:23:02;;;;;;;4.72;3.05;;;;;;;24.52;47.61;102117.63;5089690;28;20066;-74
2022/05/20 05:25:32;;;;;;;4.93;2.80;;;;;;;24.52;47.65;102120.34;5095937;28;20051;-74
2022/05/20 05:28:00;;;;;;;5.47;3.38;;;;;;;24.52;47.64;102120.34;5095269;28;20036;-73
2022/05/20 05:30:28;;;;;;;3.30;2.63;;;;;;;24.52;47.74;102119.50;5095688;28;20044;-75
2022/05/20 05:32:56;;;;;;;5.32;3.38;;;;;;;24.52;47.78;102120.34;5095593;28;20044;-73
2022/05/20 05:35:29;;;;;;;4.65;3.53;;;;;;;24.52;47.52;102120.34;5095811;28;20036;-74
2022/05/20 05:37:56;;;;;;;7.10;3.60;;;;;;;24.52;47.79;102120.34;5095446;28;20048;-74
2022/05/20 05:40:28;;;;;;;5.95;3.50;;;;;;;24.53;47.60;102126.59;5114843;28;20487;-74
2022/05/20 05:42:56;;;;;;;6.28;3.30;;;;;;;24.52;48.01;102120.34;5116132;28;20043;-74
2022/05/20 05:45:25;;;;;;;3.60;3.17;;;;;;;24.52;48.12;102123.06;5114656;27;20055;-74
2022/05/20 05:47:59;;;;;;;5.38;3.55;;;;;;;24.52;47.91;102125.75;5115650;28;20039;-73
2022/05/20 05:50:28;;;;;;;7.97;4.80;;;;;;;24.52;47.83;102123.06;5116104;28;20391;-74
2022/05/20 05:52:57;;;;;;;9.30;6.45;;;;;;;24.43;47.50;102121.16;5114368;27;20414;-73
2022/05/20 05:55:25;;;;;;;8.45;7.07;;;;;;;24.32;47.78;102115.78;5115162;28;20059;-74
2022/05/20 05:57:53;;;;;;;6.82;6.10;;;;;;;24.28;48.07;102120.59;5115407;28;20403;-73
2022/05/20 06:00:21;;;;;;;6.97;5.30;;;;;;;24.27;48.31;102123.47;5115622;28;20050;-73
2022/05/20 06:02:49;;;;;;;7.32;4.90;;;;;;;24.28;48.04;102119.75;5115996;28;20043;-73
2022/05/20 06:05:16;;;;;;;9.00;4.25;;;;;;;24.31;48.37;102127.59;5114409;27;20099;-73
2022/05/20 06:07:45;;;;;;;6.30;4.82;;;;;;;24.33;48.17;102129.16;5115538;28;20057;-73
2022/05/20 06:10:13;;;;;;;7.40;4.30;;;;;;;24.36;47.94;102115.38;5115730;28;20046;-74
2022/05/20 06:12:40;;;;;;;6.70;3.88;;;;;;;24.39;48.38;102117.00;5115644;28;20402;-73
2022/05/20 06:15:13;;;;;;;5.68;3.90;;;;;;;24.42;48.14;102119.41;5114013;27;20419;-73
2022/05/20 06:17:40;;;;;;;5.93;3.63;;;;;;;24.43;48.69;102123.88;5112205;28;20051;-73
2022/05/20 06:20:08;;;;;;;7.53;3.92;;;;;;;24.45;48.47;102112.88;5113329;28;20052;-74
2022/05/20 06:22:36;;;;;;;7.18;3.92;;;;;;;24.46;48.51;102115.44;5115289;28;20506;-76
2022/05/20 06:25:04;;;;;;;8.02;3.90;;;;;;;24.48;48.02;102121.59;5115715;28;20378;-77
2022/05/20 06:27:32;;;;;;;6.13;3.80;;;;;;;24.49;48.34;102120.59;5114126;28;20040;-74
2022/05/20 06:30:00;;;;;;;7.50;3.85;;;;;;;24.51;48.31;102117.75;5113440;28;20044;-74
2022/05/20 06:32:27;;;;;;;6.28;3.33;;;;;;;24.53;48.37;102124.75;5114785;28;20044;-73
2022/05/20 06:40:26;;;;;;;13.32;8.10;;;;;;;24.49;49.23;102127.88;5113901;28;20047;-73
2022/05/20 06:42:54;;;;;;;11.63;8.68;;;;;;;24.47;49.70;102127.13;5114150;28;20044;-74
2022/05/20 06:45:21;;;;;;;11.90;8.15;;;;;;;24.44;49.95;102132.84;5114473;28;20047;-75
2022/05/20 06:47:48;;;;;;;11.98;7.63;;;;;;;24.41;49.97;102125.84;5112686;28;20044;-75
2022/05/20 06:50:16;;;;;;;12.23;7.63;;;;;;;24.39;49.70;102125.13;5114855;28;20056;-75
2022/05/20 06:52:43;;;;;;;12.95;8.73;;;;;;;24.38;50.18;102132.34;5113211;28;20047;-75
2022/05/20 06:55:11;;;;;;;12.80;8.13;;;;;;;24.38;50.40;102128.78;5113846;28;20043;-74
2022/05/20 06:57:39;;;;;;;11.20;7.65;;;;;;;24.36;50.45;102136.19;5114621;28;20031;-74
2022/05/20 07:00:11;;;;;;;12.23;7.35;;;;;;;24.35;50.12;102127.22;5114508;28;20044;-74
2022/05/20 07:02:40;;;;;;;14.63;8.20;;;;;;;24.36;50.48;102134.31;5113383;28;20047;-75
2022/05/20 07:05:09;;;;;;;10.70;8.32;;;;;;;24.33;50.60;102131.88;5113271;28;20047;-74
2022/05/20 07:07:38;;;;;;;11.93;8.80;;;;;;;24.30;50.29;102132.13;5097379;28;20043;-74
2022/05/20 07:10:09;;;;;;;9.77;8.77;;;;;;;24.28;50.39;102128.72;5114751;28;20051;-74
2022/05/20 07:12:37;;;;;;;14.00;8.05;;;;;;;24.28;50.77;102125.16;5115822;28;20043;-74
2022/05/20 07:15:05;;;;;;;13.35;9.57;;;;;;;24.26;50.63;102127.97;5096020;28;20051;-74
2022/05/20 07:17:36;;;;;;;13.82;8.95;;;;;;;24.25;50.79;102130.84;5109361;28;20051;-74
2022/05/20 07:20:06;;;;;;;13.48;9.88;;;;;;;24.23;50.97;102119.31;5107319;28;20047;-74
2022/05/20 07:22:33;;;;;;;13.27;8.90;;;;;;;24.20;50.90;102120.41;5110038;28;20051;-74
2022/05/20 07:25:00;;;;;;;11.52;10.32;;;;;;;24.16;50.78;102122.53;5113069;28;20045;-75
2022/05/20 07:27:30;;;;;;;14.20;9.90;;;;;;;24.12;51.04;102110.25;5112852;28;20399;-74
2022/05/20 07:29:58;;;;;;;10.30;9.25;;;;;;;24.11;51.19;102121.22;5114222;28;20047;-74
2022/05/20 07:32:26;;;;;;;12.05;9.27;;;;;;;24.08;51.27;102116.91;5112672;28;20055;-73
2022/05/20 07:34:55;;;;;;;13.40;9.13;;;;;;;24.07;51.48;102114.34;5095821;28;20056;-74
2022/05/20 07:37:22;;;;;;;11.30;9.48;;;;;;;24.07;51.35;102117.91;5113548;28;20060;-73
2022/05/20 07:39:50;;;;;;;13.13;9.43;;;;;;;24.04;51.44;102118.16;5113755;28;20039;-73
2022/05/20 07:42:17;;;;;;;11.70;8.55;;;;;;;24.03;51.56;102113.75;5112367;28;20039;-73
2022/05/20 07:44:46;;;;;;;9.25;8.02;;;;;;;24.07;51.25;102114.34;5113520;28;20047;-73
2022/05/20 07:47:14;;;;;;;12.48;8.25;;;;;;;24.06;51.47;102118.88;5113425;28;20048;-73
2022/05/20 07:49:45;;;;;;;9.60;8.48;;;;;;;24.08;51.76;102116.06;5114355;28;20047;-73
2022/05/20 07:53:19;;;;;;;9.43;8.13;;;;;;;24.09;51.49;102117.78;5113046;28;20058;-73
2022/05/20 07:55:08;;;;;;;9.45;8.25;;;;;;;24.08;51.70;102116.91;5114982;28;20040;-72
2022/05/20 07:57:38;;;;;;;13.63;9.90;;;;;;;24.09;52.05;102112.34;5114403;28;20067;-74
2022/05/20 08:00:09;;;;;;;9.60;7.63;;;;;;;24.09;51.99;102124.03;5114198;28;20047;-73
2022/05/20 08:02:42;;;;;;;10.45;8.65;;;;;;;24.11;51.92;102119.38;5120815;28;20048;-74
2022/05/20 08:05:17;;;;;;;8.68;7.45;;;;;;;24.12;51.96;102115.66;5113656;28;20047;-73
2022/05/20 08:07:46;;;;;;;8.88;7.40;;;;;;;24.12;51.70;102107.53;5113228;28;20039;-74
2022/05/20 08:10:19;;;;;;;10.60;7.88;;;;;;;24.13;51.57;102109.25;5112971;28;20054;-73
2022/05/20 08:12:48;;;;;;;9.68;7.03;;;;;;;24.14;51.59;102110.97;5113455;28;20067;-74
2022/05/20 08:15:17;;;;;;;10.70;6.90;;;;;;;24.16;51.63;102103.59;5112981;28;20471;-74
2022/05/20 08:17:44;;;;;;;8.90;6.25;;;;;;;24.18;51.61;102107.03;5112626;28;20052;-74
2022/05/20 08:20:22;;;;;;;7.10;5.97;;;;;;;24.21;51.81;102108.59;5111941;28;20052;-74
2022/05/20 08:22:49;;;;;;;8.27;7.03;;;;;;;24.22;51.74;102099.47;5112896;28;20143;-74
2022/05/20 08:25:17;;;;;;;9.98;6.70;;;;;;;24.23;52.13;102100.34;5111668;28;20047;-74
2022/05/20 08:27:44;;;;;;;10.00;6.47;;;;;;;24.23;51.27;102094.94;5111618;28;20062;-74
2022/05/20 08:30:21;;;;;;;9.13;5.47;;;;;;;24.23;50.75;102090.38;5112686;28;20047;-74
2022/05/20 08:32:48;;;;;;;7.60;5.43;;;;;;;24.27;51.07;102094.53;5113085;28;20048;-74
2022/05/20 08:35:16;;;;;;;8.48;6.03;;;;;;;24.27;51.65;102094.53;5113107;28;20047;-74
2022/05/20 08:37:46;;;;;;;8.10;5.78;;;;;;;24.29;51.52;102091.69;5112598;28;20054;-74
2022/05/20 08:40:21;;;;;;;9.25;6.38;;;;;;;24.28;51.24;102090.84;5114750;28;20487;-74
2022/05/20 08:42:51;;;;;;;9.48;5.75;;;;;;;24.29;50.77;102087.13;5116226;28;20394;-74
2022/05/20 08:45:21;;;;;;;7.45;5.65;;;;;;;24.30;50.65;102082.56;5116573;28;20043;-74
2022/05/20 08:47:51;;;;;;;7.07;5.40;;;;;;;24.29;51.00;102087.13;5116976;28;20048;-74
2022/05/20 08:50:26;;;;;;;8.23;5.60;;;;;;;24.31;51.31;102092.44;5116964;28;20043;-74
2022/05/20 08:52:56;;;;;;;9.55;6.75;;;;;;;24.31;50.83;102082.47;5116580;28;20058;-74
2022/05/20 08:55:24;;;;;;;7.38;6.60;;;;;;;24.31;51.00;102078.91;5116128;28;20039;-74
2022/05/20 08:57:58;;;;;;;11.38;6.70;;;;;;;24.32;50.92;102089.56;5109749;28;20043;-73
2022/05/20 09:00:27;;;;;;;11.95;5.80;;;;;;;24.33;50.91;102085.00;5116677;28;20043;-74
2022/05/20 09:02:56;;;;;;;10.80;6.10;;;;;;;24.34;51.44;102092.13;5116094;28;20039;-74
2022/05/20 09:05:31;;;;;;;8.43;5.72;;;;;;;24.34;50.80;102076.75;5115681;28;20117;-74
2022/05/20 09:08:01;;;;;;;7.78;5.50;;;;;;;24.35;50.56;102075.78;5116429;28;20398;-74
2022/05/20 09:10:42;;;;;;;8.68;6.30;;;;;;;24.36;50.97;102072.06;5116750;28;20391;-74
2022/05/20 09:13:12;;;;;;;6.70;6.00;;;;;;;24.38;51.52;102077.38;5114522;28;20047;-74
2022/05/20 09:15:43;;;;;;;10.65;6.45;;;;;;;24.38;52.30;102077.38;5116220;28;20047;-73
2022/05/20 09:18:29;;;;;;;7.95;6.63;;;;;;;24.38;52.08;102074.66;5116622;28;20054;-74
2022/05/20 09:20:57;;;;;;;9.30;6.88;;;;;;;24.40;51.91;102073.56;5116605;28;20044;-74
2022/05/20 09:23:25;;;;;;;8.27;5.70;;;;;;;24.42;51.72;102070.69;5114792;28;20043;-74
2022/05/20 09:26:05;;;;;;;10.38;6.60;;;;;;;24.41;51.95;102069.00;5116201;28;20047;-74
2022/05/20 09:28:39;;;;;;;10.32;6.15;;;;;;;24.41;51.79;102067.13;5116524;28;20054;-74
2022/05/20 09:31:14;;;;;;;8.02;6.18;;;;;;;24.44;52.19;102065.16;5115680;28;20406;-74
2022/05/20 09:33:54;;;;;;;12.50;6.47;;;;;;;24.44;51.92;102065.16;5115971;28;20052;-74
2022/05/20 09:36:43;;;;;;;8.48;6.82;;;;;;;24.45;52.50;102061.47;5116286;28;20376;-74
2022/05/20 09:39:15;;;;;;;13.05;7.35;;;;;;;24.46;53.19;102052.34;5114676;28;20040;-74
2022/05/20 09:41:48;;;;;;;8.70;6.43;;;;;;;24.47;52.82;102044.09;5115612;28;20044;-74
2022/05/20 09:44:19;;;;;;;9.43;6.60;;;;;;;24.48;53.09;102043.09;5114806;28;20047;-74
2022/05/20 09:46:58;;;;;;;7.70;6.30;;;;;;;24.50;52.67;102045.66;5116152;28;20047;-74
2022/05/20 09:49:39;;;;;;;10.00;6.30;;;;;;;24.50;52.64;102043.81;5115754;28;20471;-74
2022/05/20 09:52:18;;;;;;;7.93;6.40;;;;;;;24.51;52.77;102039.25;5114215;28;20051;-74
2022/05/20 09:54:49;;;;;;;8.40;6.18;;;;;;;24.51;52.96;102040.13;5114489;28;20055;-74
2022/05/20 09:57:19;;;;;;;10.52;6.70;;;;;;;24.52;52.55;102036.41;5115559;28;20047;-74
2022/05/20 09:59:53;;;;;;;10.27;6.10;;;;;;;24.53;52.53;102040.81;5113740;28;20044;-75
2022/05/20 10:02:30;;;;;;;8.60;5.82;;;;;;;24.54;51.86;102033.56;5115760;28;20398;-73
2022/05/20 10:05:13;;;;;;;8.63;5.85;;;;;;;24.54;51.71;102031.69;5115469;28;20051;-73
2022/05/20 10:08:01;;;;;;;6.93;6.07;;;;;;;24.56;51.52;102034.28;5115805;28;20376;-74
2022/05/20 10:10:40;;;;;;;9.07;5.38;;;;;;;24.57;51.55;102033.28;5113678;28;20482;-74
2022/05/20 10:13:24;;;;;;;6.32;5.32;;;;;;;24.57;51.70;102027.88;5115204;28;20415;-74
2022/05/20 10:16:03;;;;;;;7.93;6.10;;;;;;;24.58;51.51;102024.16;5115328;28;20047;-74
2022/05/20 10:18:46;;;;;;;9.75;6.28;;;;;;;24.58;52.09;102022.31;5115156;28;20576;-74
2022/05/20 10:21:20;;;;;;;8.35;6.35;;;;;;;24.59;51.82;102017.75;5115431;28;20067;-74
2022/05/20 10:24:19;;;;;;;10.20;5.80;;;;;;;24.59;51.82;102013.22;5114797;28;20398;-74
2022/05/20 10:26:53;;;;;;;7.15;6.13;;;;;;;24.60;52.45;102014.94;5114619;28;20051;-73
2022/05/20 10:32:35;;;;;;;9.80;7.28;;;;;;;24.61;51.79;102011.22;5114888;28;20047;-73
2022/05/20 10:35:13;;;;;;;9.05;5.78;;;;;;;24.64;52.21;102015.50;5115087;28;20398;-73
2022/05/20 10:38:07;;;;;;;11.02;6.18;;;;;;;24.63;51.69;102011.94;5113496;28;20044;-74
2022/05/20 10:40:34;;;;;;;9.35;5.50;;;;;;;24.65;51.78;101998.25;5114296;28;20040;-74
2022/05/20 10:43:27;;;;;;;9.65;6.00;;;;;;;24.66;52.18;102003.53;5114415;28;20058;-75
2022/05/20 10:49:00;;;;;;;5.38;4.88;;;;;;;24.68;52.19;101998.00;5114808;28;20055;-74
2022/05/20 10:51:50;;;;;;;8.05;5.18;;;;;;;24.69;52.41;101991.56;5114553;28;20044;-75
2022/05/20 10:54:23;;;;;;;11.70;6.65;;;;;;;24.85;51.57;101985.63;5112851;28;20044;-74
2022/05/20 10:57:22;;;;;;;8.57;5.47;;;;;;;24.84;51.87;101984.75;5114276;28;20051;-74
2022/05/20 10:59:57;;;;;;;5.20;4.70;;;;;;;24.83;51.56;101980.34;5112786;28;20052;-74
2022/05/20 11:03:06;;;;;;;7.82;6.13;;;;;;;24.83;52.06;101980.34;5113889;28;20044;-74
2022/05/20 11:06:11;;;;;;;7.57;6.43;;;;;;;24.82;52.14;101975.91;5051107;28;20566;-74
2022/05/20 11:08:59;;;;;;;7.78;5.40;;;;;;;24.82;51.89;101969.63;5042837;28;20513;-74
2022/05/20 11:12:00;;;;;;;7.97;6.20;;;;;;;24.88;52.32;101971.81;5031226;28;20555;-75
2022/05/20 11:14:45;;;;;;;9.77;7.70;;;;;;;24.95;50.65;101961.22;5027552;28;20049;-75
2022/05/20 11:17:31;;;;;;;10.57;6.20;;;;;;;24.98;51.08;101963.66;5051686;28;20053;-75
2022/05/20 11:20:20;;;;;;;9.52;6.55;;;;;;;25.08;50.73;101959.97;5050993;28;20064;-75
2022/05/20 11:23:12;;;;;;;8.00;5.20;;;;;;;25.08;50.94;101959.97;5050832;28;20045;-75
2022/05/20 11:26:01;;;;;;;7.38;5.35;;;;;;;25.06;51.17;101951.13;5051390;28;20051;-74
2022/05/20 11:29:08;;;;;;;6.75;5.53;;;;;;;25.03;51.27;101950.53;5051216;28;20049;-75
2022/05/20 11:31:53;;;;;;;6.80;5.00;;;;;;;25.00;51.46;101946.28;5034167;28;20500;-74
2022/05/20 11:34:43;;;;;;;6.75;5.00;;;;;;;24.98;51.52;101944.69;5034887;28;20135;-75
2022/05/20 11:37:16;;;;;;;5.82;4.45;;;;;;;24.96;51.57;101942.16;5051200;28;20471;-75
2022/05/20 11:39:46;;;;;;;;;;;;;;;24.95;51.70;101945.84;5076052;28;20055;-74
2022/05/20 11:42:42;;;;;;;7.55;5.13;;;;;;;24.92;51.89;101935.31;5113682;28;19927;-75
2022/05/20 11:45:20;;;;;;;6.95;5.03;;;;;;;24.93;51.91;101934.31;5111090;28;20043;-74
2022/05/20 11:48:11;;;;;;;6.93;5.43;;;;;;;24.91;52.09;101929.03;5113195;28;20479;-77
2022/05/20 11:51:26;;;;;;;7.10;5.40;;;;;;;24.91;52.28;101930.84;5113189;28;20483;-74
2022/05/20 11:54:15;;;;;;;8.50;6.40;;;;;;;25.26;49.53;101921.34;5054354;28;20096;-76
2022/05/20 11:57:04;;;;;;;8.20;5.57;;;;;;;25.17;50.80;101922.22;5053970;28;20432;-74
2022/05/20 11:59:37;;;;;;;7.97;5.68;;;;;;;25.13;51.00;101924.34;5070711;28;20432;-77
2022/05/20 12:02:06;;;;;;;;;;;;;;;25.09;51.36;101912.94;5072799;28;20555;-73
2022/05/20 12:04:36;;;;;;;6.63;5.50;;;;;;;25.07;51.15;101912.19;5070550;28;19920;-77
2022/05/20 12:07:23;;;;;;;7.50;5.07;;;;;;;25.06;51.54;101917.75;5070986;28;20052;-74
2022/05/20 12:09:53;;;;;;;7.40;5.07;;;;;;;25.04;51.61;101917.06;5054228;28;20075;-74
2022/05/20 12:12:31;;;;;;;6.53;5.20;;;;;;;25.03;51.45;101909.91;5070465;28;20455;-74
2022/05/20 12:15:12;;;;;;;8.50;5.85;;;;;;;25.05;51.15;101902.50;5033683;28;20053;-74
2022/05/20 12:17:51;;;;;;;6.75;5.47;;;;;;;25.05;51.27;101894.38;5052086;28;20444;-75